sensor_id;sensor_type;location;lat;lon;timestamp;temperature;humidity
40670;DHT22;26355;45.528;9.234;2023-04-12T00:01:52;17.00;99.90
40670;DHT22;26355;45.528;9.234;2023-04-12T00:04:18;17.00;99.90
40670;DHT22;26355;45.528;9.234;2023-04-12T00:06:46;17.00;99.90
40670;DHT22;26355;45.528;9.234;2023-04-12T00:09:13;17.00;99.90
40670;DHT22;26355;45.528;9.234;2023-04-12T00:11:40;17.00;99.90
40670;DHT22;26355;45.528;9.234;2023-04-12T00:14:05;16.90;99.90
40670;DHT22;26355;45.528;9.234;2023-04-12T00:16:31;16.90;99.90
40670;DHT22;26355;45.528;9.234;2023-04-12T00:18:57;16.90;99.90
40670;DHT22;26355;45.528;9.234;2023-04-12T00:21:23;17.00;99.90
40670;DHT22;26355;45.528;9.234;2023-04-12T00:23:48;16.90;99.90
40670;DHT22;26355;45.528;9.234;2023-04-12T00:26:15;16.80;99.90
40670;DHT22;26355;45.528;9.234;2023-04-12T00:28:41;16.80;99.90
40670;DHT22;26355;45.528;9.234;2023-04-12T00:31:07;16.80;99.90
40670;DHT22;26355;45.528;9.234;2023-04-12T00:33:33;16.80;99.90
40670;DHT22;26355;45.528;9.234;2023-04-12T00:35:59;16.90;99.90
40670;DHT22;26355;45.528;9.234;2023-04-12T00:38:25;16.80;99.90
40670;DHT22;26355;45.528;9.234;2023-04-12T00:40:51;16.80;99.90
40670;DHT22;26355;45.528;9.234;2023-04-12T00:43:16;16.90;99.90
40670;DHT22;26355;45.528;9.234;2023-04-12T00:45:45;16.90;99.90
40670;DHT22;26355;45.528;9.234;2023-04-12T00:48:12;16.90;99.90
40670;DHT22;26355;45.528;9.234;2023-04-12T00:50:38;16.70;99.90
40670;DHT22;26355;45.528;9.234;2023-04-12T00:53:06;16.70;99.90
40670;DHT22;26355;45.528;9.234;2023-04-12T00:55:34;16.50;99.90
40670;DHT22;26355;45.528;9.234;2023-04-12T00:58:00;16.60;99.90
40670;DHT22;26355;45.528;9.234;2023-04-12T01:00:26;16.40;99.90
40670;DHT22;26355;45.528;9.234;2023-04-12T01:02:51;16.50;99.90
40670;DHT22;26355;45.528;9.234;2023-04-12T01:05:19;16.50;99.90
40670;DHT22;26355;45.528;9.234;2023-04-12T01:10:42;16.40;99.90
40670;DHT22;26355;45.528;9.234;2023-04-12T01:13:13;16.80;99.90
40670;DHT22;26355;45.528;9.234;2023-04-12T01:15:50;16.40;99.90
40670;DHT22;26355;45.528;9.234;2023-04-12T01:18:21;16.50;99.90
40670;DHT22;26355;45.528;9.234;2023-04-12T01:20:56;16.50;99.90
40670;DHT22;26355;45.528;9.234;2023-04-12T01:26:43;16.40;99.90
40670;DHT22;26355;45.528;9.234;2023-04-12T01:29:20;16.50;99.90
40670;DHT22;26355;45.528;9.234;2023-04-12T01:31:59;16.40;99.90
40670;DHT22;26355;45.528;9.234;2023-04-12T01:34:29;16.90;99.90
40670;DHT22;26355;45.528;9.234;2023-04-12T01:39:44;16.40;99.90
40670;DHT22;26355;45.528;9.234;2023-04-12T01:42:10;16.40;99.90
40670;DHT22;26355;45.528;9.234;2023-04-12T01:44:36;16.50;99.90
40670;DHT22;26355;45.528;9.234;2023-04-12T01:47:02;16.30;99.90
40670;DHT22;26355;45.528;9.234;2023-04-12T01:49:42;16.30;99.90
40670;DHT22;26355;45.528;9.234;2023-04-12T01:52:12;16.40;99.90
40670;DHT22;26355;45.528;9.234;2023-04-12T01:54:41;16.40;99.90
40670;DHT22;26355;45.528;9.234;2023-04-12T01:57:09;16.40;99.90
40670;DHT22;26355;45.528;9.234;2023-04-12T01:59:39;16.40;99.90
40670;DHT22;26355;45.528;9.234;2023-04-12T02:02:05;16.40;99.90
40670;DHT22;26355;45.528;9.234;2023-04-12T02:04:33;16.10;99.90
40670;DHT22;26355;45.528;9.234;2023-04-12T02:06:59;16.00;99.90
40670;DHT22;26355;45.528;9.234;2023-04-12T02:09:25;15.90;99.90
40670;DHT22;26355;45.528;9.234;2023-04-12T02:11:51;15.80;99.90
40670;DHT22;26355;45.528;9.234;2023-04-12T02:14:17;15.90;99.90
40670;DHT22;26355;45.528;9.234;2023-04-12T02:16:43;15.80;99.90
40670;DHT22;26355;45.528;9.234;2023-04-12T02:19:10;15.90;99.90
40670;DHT22;26355;45.528;9.234;2023-04-12T02:21:43;15.80;99.90
40670;DHT22;26355;45.528;9.234;2023-04-12T02:24:09;15.80;99.90
40670;DHT22;26355;45.528;9.234;2023-04-12T02:26:36;15.80;99.90
40670;DHT22;26355;45.528;9.234;2023-04-12T02:29:03;15.70;99.90
40670;DHT22;26355;45.528;9.234;2023-04-12T02:31:48;15.80;99.90
40670;DHT22;26355;45.528;9.234;2023-04-12T02:34:13;15.80;99.90
40670;DHT22;26355;45.528;9.234;2023-04-12T02:36:40;15.80;99.90
40670;DHT22;26355;45.528;9.234;2023-04-12T02:39:05;15.70;99.90
40670;DHT22;26355;45.528;9.234;2023-04-12T02:41:32;15.80;99.90
40670;DHT22;26355;45.528;9.234;2023-04-12T02:43:57;15.70;99.90
40670;DHT22;26355;45.528;9.234;2023-04-12T02:46:24;15.60;99.90
40670;DHT22;26355;45.528;9.234;2023-04-12T02:48:51;15.50;99.90
40670;DHT22;26355;45.528;9.234;2023-04-12T02:51:17;15.60;99.90
40670;DHT22;26355;45.528;9.234;2023-04-12T02:53:42;15.50;99.90
40670;DHT22;26355;45.528;9.234;2023-04-12T02:56:08;15.50;99.90
40670;DHT22;26355;45.528;9.234;2023-04-12T02:58:35;15.60;99.90
40670;DHT22;26355;45.528;9.234;2023-04-12T03:01:01;15.30;99.90
40670;DHT22;26355;45.528;9.234;2023-04-12T03:03:32;15.40;99.90
40670;DHT22;26355;45.528;9.234;2023-04-12T03:05:58;15.30;99.90
40670;DHT22;26355;45.528;9.234;2023-04-12T03:08:24;15.30;99.90
40670;DHT22;26355;45.528;9.234;2023-04-12T03:10:49;15.30;99.90
40670;DHT22;26355;45.528;9.234;2023-04-12T03:13:15;15.50;99.90
40670;DHT22;26355;45.528;9.234;2023-04-12T03:15:41;15.40;99.90
40670;DHT22;26355;45.528;9.234;2023-04-12T03:18:08;15.40;99.90
40670;DHT22;26355;45.528;9.234;2023-04-12T03:20:33;15.30;99.90
40670;DHT22;26355;45.528;9.234;2023-04-12T03:22:59;15.30;99.90
40670;DHT22;26355;45.528;9.234;2023-04-12T03:25:25;15.20;99.90
40670;DHT22;26355;45.528;9.234;2023-04-12T03:27:51;15.10;99.90
40670;DHT22;26355;45.528;9.234;2023-04-12T03:30:17;15.30;99.90
40670;DHT22;26355;45.528;9.234;2023-04-12T03:32:43;15.20;99.90
40670;DHT22;26355;45.528;9.234;2023-04-12T03:35:09;15.40;99.90
40670;DHT22;26355;45.528;9.234;2023-04-12T03:37:35;15.10;99.90
40670;DHT22;26355;45.528;9.234;2023-04-12T03:40:01;15.20;99.90
40670;DHT22;26355;45.528;9.234;2023-04-12T03:42:27;15.20;99.90
40670;DHT22;26355;45.528;9.234;2023-04-12T03:44:53;15.20;99.90
40670;DHT22;26355;45.528;9.234;2023-04-12T03:47:19;15.10;99.90
40670;DHT22;26355;45.528;9.234;2023-04-12T03:49:48;15.10;99.90
40670;DHT22;26355;45.528;9.234;2023-04-12T03:52:14;15.10;99.90
40670;DHT22;26355;45.528;9.234;2023-04-12T03:54:40;15.10;99.90
40670;DHT22;26355;45.528;9.234;2023-04-12T03:57:06;15.10;99.90
40670;DHT22;26355;45.528;9.234;2023-04-12T03:59:31;15.10;99.90
40670;DHT22;26355;45.528;9.234;2023-04-12T04:01:58;15.10;99.90
40670;DHT22;26355;45.528;9.234;2023-04-12T04:04:26;15.00;99.90
40670;DHT22;26355;45.528;9.234;2023-04-12T04:06:54;14.90;99.90
40670;DHT22;26355;45.528;9.234;2023-04-12T04:09:19;14.80;99.90
40670;DHT22;26355;45.528;9.234;2023-04-12T04:11:45;14.80;99.90
40670;DHT22;26355;45.528;9.234;2023-04-12T04:14:14;14.80;99.90
40670;DHT22;26355;45.528;9.234;2023-04-12T04:16:40;14.90;99.90
40670;DHT22;26355;45.528;9.234;2023-04-12T04:19:06;14.90;99.90
40670;DHT22;26355;45.528;9.234;2023-04-12T04:21:31;14.90;99.90
40670;DHT22;26355;45.528;9.234;2023-04-12T04:24:00;14.90;99.90
40670;DHT22;26355;45.528;9.234;2023-04-12T04:26:27;15.00;99.90
40670;DHT22;26355;45.528;9.234;2023-04-12T04:28:59;15.00;99.90
40670;DHT22;26355;45.528;9.234;2023-04-12T04:31:43;15.00;99.90
40670;DHT22;26355;45.528;9.234;2023-04-12T04:34:10;15.10;99.90
40670;DHT22;26355;45.528;9.234;2023-04-12T04:36:36;15.00;99.90
40670;DHT22;26355;45.528;9.234;2023-04-12T04:39:03;15.00;99.90
40670;DHT22;26355;45.528;9.234;2023-04-12T04:41:31;15.10;99.90
40670;DHT22;26355;45.528;9.234;2023-04-12T04:44:04;15.00;99.90
40670;DHT22;26355;45.528;9.234;2023-04-12T04:46:37;15.10;99.90
40670;DHT22;26355;45.528;9.234;2023-04-12T04:49:03;15.20;99.90
40670;DHT22;26355;45.528;9.234;2023-04-12T04:51:29;15.20;99.90
40670;DHT22;26355;45.528;9.234;2023-04-12T04:53:55;15.30;99.90
40670;DHT22;26355;45.528;9.234;2023-04-12T04:56:20;15.20;99.90
40670;DHT22;26355;45.528;9.234;2023-04-12T04:58:50;15.20;99.90
40670;DHT22;26355;45.528;9.234;2023-04-12T05:01:15;15.10;99.90
40670;DHT22;26355;45.528;9.234;2023-04-12T05:03:42;15.00;99.90
40670;DHT22;26355;45.528;9.234;2023-04-12T05:06:09;15.10;99.90
40670;DHT22;26355;45.528;9.234;2023-04-12T05:08:35;15.10;99.90
40670;DHT22;26355;45.528;9.234;2023-04-12T05:11:01;15.30;99.90
40670;DHT22;26355;45.528;9.234;2023-04-12T05:13:26;15.20;99.90
40670;DHT22;26355;45.528;9.234;2023-04-12T05:15:52;15.20;99.90
40670;DHT22;26355;45.528;9.234;2023-04-12T05:18:18;15.20;99.90
40670;DHT22;26355;45.528;9.234;2023-04-12T05:20:43;15.30;99.90
40670;DHT22;26355;45.528;9.234;2023-04-12T05:23:10;15.30;99.90
40670;DHT22;26355;45.528;9.234;2023-04-12T05:25:35;15.20;99.90
40670;DHT22;26355;45.528;9.234;2023-04-12T05:28:01;15.30;99.90
40670;DHT22;26355;45.528;9.234;2023-04-12T05:30:28;15.30;99.90
40670;DHT22;26355;45.528;9.234;2023-04-12T05:32:53;15.30;99.90
40670;DHT22;26355;45.528;9.234;2023-04-12T05:35:19;15.40;99.90
40670;DHT22;26355;45.528;9.234;2023-04-12T05:37:44;15.40;99.90
40670;DHT22;26355;45.528;9.234;2023-04-12T05:40:10;15.50;99.90
40670;DHT22;26355;45.528;9.234;2023-04-12T05:42:36;15.50;99.90
40670;DHT22;26355;45.528;9.234;2023-04-12T05:45:02;15.60;99.90
40670;DHT22;26355;45.528;9.234;2023-04-12T05:47:28;15.60;99.90
40670;DHT22;26355;45.528;9.234;2023-04-12T05:49:54;15.60;99.90
40670;DHT22;26355;45.528;9.234;2023-04-12T05:52:20;15.60;99.90
40670;DHT22;26355;45.528;9.234;2023-04-12T05:54:45;15.60;99.90
40670;DHT22;26355;45.528;9.234;2023-04-12T05:57:11;15.80;99.90
40670;DHT22;26355;45.528;9.234;2023-04-12T05:59:37;15.70;99.90
40670;DHT22;26355;45.528;9.234;2023-04-12T06:02:02;15.70;99.90
40670;DHT22;26355;45.528;9.234;2023-04-12T06:04:28;15.70;99.90
40670;DHT22;26355;45.528;9.234;2023-04-12T06:06:54;15.80;99.90
40670;DHT22;26355;45.528;9.234;2023-04-12T06:09:20;15.80;99.90
40670;DHT22;26355;45.528;9.234;2023-04-12T06:11:46;15.80;99.90
40670;DHT22;26355;45.528;9.234;2023-04-12T06:14:12;15.90;99.90
40670;DHT22;26355;45.528;9.234;2023-04-12T06:16:37;15.90;99.90
40670;DHT22;26355;45.528;9.234;2023-04-12T06:19:03;16.10;99.90
40670;DHT22;26355;45.528;9.234;2023-04-12T06:21:29;16.00;99.90
40670;DHT22;26355;45.528;9.234;2023-04-12T06:23:55;16.00;99.90
40670;DHT22;26355;45.528;9.234;2023-04-12T06:26:20;16.10;99.80
40670;DHT22;26355;45.528;9.234;2023-04-12T06:28:46;16.10;99.80
40670;DHT22;26355;45.528;9.234;2023-04-12T06:31:12;16.10;99.70
40670;DHT22;26355;45.528;9.234;2023-04-12T06:33:37;16.30;99.90
40670;DHT22;26355;45.528;9.234;2023-04-12T06:36:03;16.20;99.60
40670;DHT22;26355;45.528;9.234;2023-04-12T06:38:28;16.30;99.50
40670;DHT22;26355;45.528;9.234;2023-04-12T06:40:54;16.10;99.50
40670;DHT22;26355;45.528;9.234;2023-04-12T06:43:20;16.10;99.50
40670;DHT22;26355;45.528;9.234;2023-04-12T06:45:47;16.00;99.50
40670;DHT22;26355;45.528;9.234;2023-04-12T06:48:14;16.00;99.60
40670;DHT22;26355;45.528;9.234;2023-04-12T06:50:40;15.90;99.70
40670;DHT22;26355;45.528;9.234;2023-04-12T06:53:05;16.00;99.70
40670;DHT22;26355;45.528;9.234;2023-04-12T06:55:31;16.00;99.80
40670;DHT22;26355;45.528;9.234;2023-04-12T06:57:57;16.10;99.80
40670;DHT22;26355;45.528;9.234;2023-04-12T07:00:23;16.20;99.70
40670;DHT22;26355;45.528;9.234;2023-04-12T07:02:49;16.30;99.50
40670;DHT22;26355;45.528;9.234;2023-04-12T07:05:14;16.30;99.30
40670;DHT22;26355;45.528;9.234;2023-04-12T07:07:40;16.40;99.20
40670;DHT22;26355;45.528;9.234;2023-04-12T07:10:06;16.40;99.00
40670;DHT22;26355;45.528;9.234;2023-04-12T07:12:32;16.50;98.90
40670;DHT22;26355;45.528;9.234;2023-04-12T07:14:58;16.50;98.80
40670;DHT22;26355;45.528;9.234;2023-04-12T07:17:24;16.50;98.50
40670;DHT22;26355;45.528;9.234;2023-04-12T07:19:52;16.60;98.40
40670;DHT22;26355;45.528;9.234;2023-04-12T07:22:18;16.50;98.10
40670;DHT22;26355;45.528;9.234;2023-04-12T07:24:44;16.50;98.10
40670;DHT22;26355;45.528;9.234;2023-04-12T07:27:09;16.60;98.10
40670;DHT22;26355;45.528;9.234;2023-04-12T07:29:35;16.50;98.30
40670;DHT22;26355;45.528;9.234;2023-04-12T07:32:02;16.60;98.20
40670;DHT22;26355;45.528;9.234;2023-04-12T07:34:28;16.30;97.90
40670;DHT22;26355;45.528;9.234;2023-04-12T07:36:55;16.40;98.00
40670;DHT22;26355;45.528;9.234;2023-04-12T07:39:20;16.30;97.80
40670;DHT22;26355;45.528;9.234;2023-04-12T07:41:48;16.30;98.00
40670;DHT22;26355;45.528;9.234;2023-04-12T07:44:14;16.40;97.90
40670;DHT22;26355;45.528;9.234;2023-04-12T07:46:39;16.20;98.00
40670;DHT22;26355;45.528;9.234;2023-04-12T07:49:07;16.20;98.10
40670;DHT22;26355;45.528;9.234;2023-04-12T07:51:34;16.20;98.00
40670;DHT22;26355;45.528;9.234;2023-04-12T07:54:00;16.40;98.10
40670;DHT22;26355;45.528;9.234;2023-04-12T07:56:26;16.30;98.10
40670;DHT22;26355;45.528;9.234;2023-04-12T07:58:51;16.30;98.10
40670;DHT22;26355;45.528;9.234;2023-04-12T08:01:17;16.30;98.00
40670;DHT22;26355;45.528;9.234;2023-04-12T08:03:42;16.30;98.00
40670;DHT22;26355;45.528;9.234;2023-04-12T08:06:08;16.20;98.00
40670;DHT22;26355;45.528;9.234;2023-04-12T08:08:34;16.10;98.20
40670;DHT22;26355;45.528;9.234;2023-04-12T08:10:59;16.00;98.20
40670;DHT22;26355;45.528;9.234;2023-04-12T08:13:27;16.10;97.90
40670;DHT22;26355;45.528;9.234;2023-04-12T08:15:52;16.10;98.20
40670;DHT22;26355;45.528;9.234;2023-04-12T08:18:18;16.10;98.30
40670;DHT22;26355;45.528;9.234;2023-04-12T08:20:44;16.00;97.90
40670;DHT22;26355;45.528;9.234;2023-04-12T08:23:10;16.30;98.00
40670;DHT22;26355;45.528;9.234;2023-04-12T08:25:37;16.20;98.10
40670;DHT22;26355;45.528;9.234;2023-04-12T08:28:03;16.40;97.90
40670;DHT22;26355;45.528;9.234;2023-04-12T08:30:29;16.60;97.60
40670;DHT22;26355;45.528;9.234;2023-04-12T08:32:55;16.70;97.40
40670;DHT22;26355;45.528;9.234;2023-04-12T08:35:22;16.60;97.00
40670;DHT22;26355;45.528;9.234;2023-04-12T08:37:48;16.60;97.50
40670;DHT22;26355;45.528;9.234;2023-04-12T08:40:14;16.30;97.40
40670;DHT22;26355;45.528;9.234;2023-04-12T08:42:40;16.50;97.20
40670;DHT22;26355;45.528;9.234;2023-04-12T08:45:07;16.60;97.40
40670;DHT22;26355;45.528;9.234;2023-04-12T08:47:41;16.50;97.40
40670;DHT22;26355;45.528;9.234;2023-04-12T08:50:08;16.30;97.60
40670;DHT22;26355;45.528;9.234;2023-04-12T08:52:36;16.40;97.40
40670;DHT22;26355;45.528;9.234;2023-04-12T08:55:06;16.10;97.20
40670;DHT22;26355;45.528;9.234;2023-04-12T08:57:32;16.10;96.90
40670;DHT22;26355;45.528;9.234;2023-04-12T08:59:59;16.30;97.00
40670;DHT22;26355;45.528;9.234;2023-04-12T09:02:26;16.30;96.30
40670;DHT22;26355;45.528;9.234;2023-04-12T09:04:52;16.30;96.70
40670;DHT22;26355;45.528;9.234;2023-04-12T09:07:18;16.30;96.30
40670;DHT22;26355;45.528;9.234;2023-04-12T09:09:47;16.30;95.80
40670;DHT22;26355;45.528;9.234;2023-04-12T09:12:13;15.90;95.40
40670;DHT22;26355;45.528;9.234;2023-04-12T09:14:40;16.10;95.90
40670;DHT22;26355;45.528;9.234;2023-04-12T09:17:23;16.10;95.40
40670;DHT22;26355;45.528;9.234;2023-04-12T09:19:49;16.20;95.00
40670;DHT22;26355;45.528;9.234;2023-04-12T09:22:15;16.20;95.30
40670;DHT22;26355;45.528;9.234;2023-04-12T09:24:46;16.10;94.70
40670;DHT22;26355;45.528;9.234;2023-04-12T09:27:11;16.20;94.60
40670;DHT22;26355;45.528;9.234;2023-04-12T09:29:37;16.20;94.80
40670;DHT22;26355;45.528;9.234;2023-04-12T09:32:05;16.40;94.70
40670;DHT22;26355;45.528;9.234;2023-04-12T09:34:32;16.40;94.90
40670;DHT22;26355;45.528;9.234;2023-04-12T09:37:11;16.60;95.00
40670;DHT22;26355;45.528;9.234;2023-04-12T09:39:37;16.60;94.80
40670;DHT22;26355;45.528;9.234;2023-04-12T09:42:04;16.50;95.00
40670;DHT22;26355;45.528;9.234;2023-04-12T09:44:30;16.50;95.30
40670;DHT22;26355;45.528;9.234;2023-04-12T09:46:56;16.30;94.70
40670;DHT22;26355;45.528;9.234;2023-04-12T09:49:43;16.70;95.20
40670;DHT22;26355;45.528;9.234;2023-04-12T09:52:11;16.70;95.30
40670;DHT22;26355;45.528;9.234;2023-04-12T09:54:45;16.90;95.50
40670;DHT22;26355;45.528;9.234;2023-04-12T09:57:12;16.90;95.10
40670;DHT22;26355;45.528;9.234;2023-04-12T09:59:39;17.00;95.30
40670;DHT22;26355;45.528;9.234;2023-04-12T10:02:21;16.90;95.30
40670;DHT22;26355;45.528;9.234;2023-04-12T10:04:48;17.00;94.60
40670;DHT22;26355;45.528;9.234;2023-04-12T10:07:14;17.10;94.60
40670;DHT22;26355;45.528;9.234;2023-04-12T10:09:40;17.20;94.30
40670;DHT22;26355;45.528;9.234;2023-04-12T10:12:07;17.40;93.90
40670;DHT22;26355;45.528;9.234;2023-04-12T10:14:33;17.50;93.80
40670;DHT22;26355;45.528;9.234;2023-04-12T10:17:01;17.70;93.50
40670;DHT22;26355;45.528;9.234;2023-04-12T10:19:28;17.60;93.20
40670;DHT22;26355;45.528;9.234;2023-04-12T10:21:55;17.70;93.20
40670;DHT22;26355;45.528;9.234;2023-04-12T10:24:25;17.60;93.10
40670;DHT22;26355;45.528;9.234;2023-04-12T10:26:55;17.80;92.90
40670;DHT22;26355;45.528;9.234;2023-04-12T10:29:28;18.00;92.70
40670;DHT22;26355;45.528;9.234;2023-04-12T10:31:56;17.90;92.60
40670;DHT22;26355;45.528;9.234;2023-04-12T10:34:25;18.20;92.40
40670;DHT22;26355;45.528;9.234;2023-04-12T10:39:38;17.50;92.60
40670;DHT22;26355;45.528;9.234;2023-04-12T10:45:34;17.80;92.60
40670;DHT22;26355;45.528;9.234;2023-04-12T10:48:00;17.90;92.60
40670;DHT22;26355;45.528;9.234;2023-04-12T10:50:30;17.90;93.00
40670;DHT22;26355;45.528;9.234;2023-04-12T10:55:50;18.30;92.60
40670;DHT22;26355;45.528;9.234;2023-04-12T11:01:12;18.10;93.00
40670;DHT22;26355;45.528;9.234;2023-04-12T11:09:24;18.10;93.40
40670;DHT22;26355;45.528;9.234;2023-04-12T11:12:12;18.20;93.50
40670;DHT22;26355;45.528;9.234;2023-04-12T11:14:47;18.40;93.40
40670;DHT22;26355;45.528;9.234;2023-04-12T11:19:52;18.60;93.30
40670;DHT22;26355;45.528;9.234;2023-04-12T11:22:19;18.60;92.80
40670;DHT22;26355;45.528;9.234;2023-04-12T11:24:48;18.70;92.90
40670;DHT22;26355;45.528;9.234;2023-04-12T11:27:14;18.70;92.90
40670;DHT22;26355;45.528;9.234;2023-04-12T11:29:43;18.90;92.90
40670;DHT22;26355;45.528;9.234;2023-04-12T11:32:11;18.90;93.00
40670;DHT22;26355;45.528;9.234;2023-04-12T11:34:38;18.80;93.00
40670;DHT22;26355;45.528;9.234;2023-04-12T11:37:05;18.80;93.00
40670;DHT22;26355;45.528;9.234;2023-04-12T11:39:42;18.70;93.20
40670;DHT22;26355;45.528;9.234;2023-04-12T11:42:16;18.70;93.00
40670;DHT22;26355;45.528;9.234;2023-04-12T11:44:43;18.70;93.00
40670;DHT22;26355;45.528;9.234;2023-04-12T11:47:16;18.60;93.30
40670;DHT22;26355;45.528;9.234;2023-04-12T11:49:53;18.90;93.00
40670;DHT22;26355;45.528;9.234;2023-04-12T11:52:20;18.80;92.90
40670;DHT22;26355;45.528;9.234;2023-04-12T11:54:50;19.00;93.00
40670;DHT22;26355;45.528;9.234;2023-04-12T11:57:17;19.10;92.80
40670;DHT22;26355;45.528;9.234;2023-04-12T11:59:46;19.10;92.80
40670;DHT22;26355;45.528;9.234;2023-04-12T12:02:13;19.00;92.50
40670;DHT22;26355;45.528;9.234;2023-04-12T12:04:41;19.20;92.90
40670;DHT22;26355;45.528;9.234;2023-04-12T12:07:07;19.20;92.90
40670;DHT22;26355;45.528;9.234;2023-04-12T12:09:34;19.30;92.80
40670;DHT22;26355;45.528;9.234;2023-04-12T12:12:00;19.40;92.80
40670;DHT22;26355;45.528;9.234;2023-04-12T12:14:26;19.30;92.90
40670;DHT22;26355;45.528;9.234;2023-04-12T12:16:56;19.30;92.90
40670;DHT22;26355;45.528;9.234;2023-04-12T12:19:32;19.20;93.00
40670;DHT22;26355;45.528;9.234;2023-04-12T12:22:18;19.20;93.30
40670;DHT22;26355;45.528;9.234;2023-04-12T12:24:53;19.10;93.30
40670;DHT22;26355;45.528;9.234;2023-04-12T12:29:59;19.30;93.40
40670;DHT22;26355;45.528;9.234;2023-04-12T12:32:26;19.50;93.50
40670;DHT22;26355;45.528;9.234;2023-04-12T12:34:57;19.60;93.60
40670;DHT22;26355;45.528;9.234;2023-04-12T12:37:24;19.60;93.50
40670;DHT22;26355;45.528;9.234;2023-04-12T12:40:10;19.80;93.70
40670;DHT22;26355;45.528;9.234;2023-04-12T12:42:54;19.80;93.30
40670;DHT22;26355;45.528;9.234;2023-04-12T12:45:21;19.80;93.40
40670;DHT22;26355;45.528;9.234;2023-04-12T12:48:01;19.60;93.50
40670;DHT22;26355;45.528;9.234;2023-04-12T12:50:31;19.60;93.40
40670;DHT22;26355;45.528;9.234;2023-04-12T12:52:57;19.20;93.40
40670;DHT22;26355;45.528;9.234;2023-04-12T12:55:25;19.10;93.70
40670;DHT22;26355;45.528;9.234;2023-04-12T12:57:53;19.10;93.90
40670;DHT22;26355;45.528;9.234;2023-04-12T13:00:21;19.00;94.00
40670;DHT22;26355;45.528;9.234;2023-04-12T13:02:47;18.90;94.20
40670;DHT22;26355;45.528;9.234;2023-04-12T13:05:14;19.10;94.20
40670;DHT22;26355;45.528;9.234;2023-04-12T13:07:39;19.10;94.20
40670;DHT22;26355;45.528;9.234;2023-04-12T13:10:05;19.10;94.40
40670;DHT22;26355;45.528;9.234;2023-04-12T13:12:32;19.20;94.40
40670;DHT22;26355;45.528;9.234;2023-04-12T13:14:57;19.10;94.30
40670;DHT22;26355;45.528;9.234;2023-04-12T13:17:25;19.20;94.40
40670;DHT22;26355;45.528;9.234;2023-04-12T13:19:51;19.10;94.40
40670;DHT22;26355;45.528;9.234;2023-04-12T13:22:16;19.00;94.50
40670;DHT22;26355;45.528;9.234;2023-04-12T13:24:42;19.00;94.60
40670;DHT22;26355;45.528;9.234;2023-04-12T13:27:08;18.90;94.70
40670;DHT22;26355;45.528;9.234;2023-04-12T13:29:34;19.00;94.80
40670;DHT22;26355;45.528;9.234;2023-04-12T13:32:01;19.00;95.10
40670;DHT22;26355;45.528;9.234;2023-04-12T13:34:26;19.10;94.70
40670;DHT22;26355;45.528;9.234;2023-04-12T13:36:52;19.20;94.50
40670;DHT22;26355;45.528;9.234;2023-04-12T13:39:17;19.20;94.40
40670;DHT22;26355;45.528;9.234;2023-04-12T13:41:43;19.20;94.40
40670;DHT22;26355;45.528;9.234;2023-04-12T13:44:09;19.20;94.20
40670;DHT22;26355;45.528;9.234;2023-04-12T13:46:34;19.20;94.30
40670;DHT22;26355;45.528;9.234;2023-04-12T13:49:00;19.30;94.30
40670;DHT22;26355;45.528;9.234;2023-04-12T13:51:26;19.10;94.30
40670;DHT22;26355;45.528;9.234;2023-04-12T13:53:53;19.20;94.40
40670;DHT22;26355;45.528;9.234;2023-04-12T13:56:18;19.20;94.40
40670;DHT22;26355;45.528;9.234;2023-04-12T13:58:45;19.00;94.60
40670;DHT22;26355;45.528;9.234;2023-04-12T14:01:10;19.10;94.70
40670;DHT22;26355;45.528;9.234;2023-04-12T14:03:37;18.80;94.90
40670;DHT22;26355;45.528;9.234;2023-04-12T14:06:04;18.80;95.10
40670;DHT22;26355;45.528;9.234;2023-04-12T14:08:30;18.80;95.00
40670;DHT22;26355;45.528;9.234;2023-04-12T14:10:55;18.80;95.00
40670;DHT22;26355;45.528;9.234;2023-04-12T14:13:22;18.90;95.00
40670;DHT22;26355;45.528;9.234;2023-04-12T14:15:49;18.80;94.90
40670;DHT22;26355;45.528;9.234;2023-04-12T14:18:16;18.70;95.10
40670;DHT22;26355;45.528;9.234;2023-04-12T14:20:41;18.70;95.20
40670;DHT22;26355;45.528;9.234;2023-04-12T14:23:10;18.80;95.30
40670;DHT22;26355;45.528;9.234;2023-04-12T14:25:38;18.70;95.30
40670;DHT22;26355;45.528;9.234;2023-04-12T14:28:04;18.70;95.30
40670;DHT22;26355;45.528;9.234;2023-04-12T14:30:29;18.70;95.40
40670;DHT22;26355;45.528;9.234;2023-04-12T14:32:55;18.60;95.50
40670;DHT22;26355;45.528;9.234;2023-04-12T14:35:21;18.60;95.60
40670;DHT22;26355;45.528;9.234;2023-04-12T14:37:47;18.70;95.60
40670;DHT22;26355;45.528;9.234;2023-04-12T14:40:12;18.60;95.80
40670;DHT22;26355;45.528;9.234;2023-04-12T14:42:38;18.70;95.80
40670;DHT22;26355;45.528;9.234;2023-04-12T14:45:04;18.60;95.80
40670;DHT22;26355;45.528;9.234;2023-04-12T14:47:32;18.70;95.80
40670;DHT22;26355;45.528;9.234;2023-04-12T14:49:58;18.70;95.90
40670;DHT22;26355;45.528;9.234;2023-04-12T14:52:24;18.60;95.90
40670;DHT22;26355;45.528;9.234;2023-04-12T14:54:49;18.60;95.90
40670;DHT22;26355;45.528;9.234;2023-04-12T14:57:15;18.70;96.00
40670;DHT22;26355;45.528;9.234;2023-04-12T14:59:40;18.60;95.90
40670;DHT22;26355;45.528;9.234;2023-04-12T15:02:06;18.40;96.20
40670;DHT22;26355;45.528;9.234;2023-04-12T15:04:31;18.40;96.20
40670;DHT22;26355;45.528;9.234;2023-04-12T15:06:57;18.50;96.30
40670;DHT22;26355;45.528;9.234;2023-04-12T15:09:23;18.50;96.30
40670;DHT22;26355;45.528;9.234;2023-04-12T15:11:49;18.40;96.40
40670;DHT22;26355;45.528;9.234;2023-04-12T15:14:19;18.40;96.40
40670;DHT22;26355;45.528;9.234;2023-04-12T15:16:45;18.50;96.40
40670;DHT22;26355;45.528;9.234;2023-04-12T15:19:13;18.50;96.50
40670;DHT22;26355;45.528;9.234;2023-04-12T15:21:39;18.40;96.50
40670;DHT22;26355;45.528;9.234;2023-04-12T15:24:05;18.40;96.40
40670;DHT22;26355;45.528;9.234;2023-04-12T15:26:30;18.50;96.70
40670;DHT22;26355;45.528;9.234;2023-04-12T15:28:56;18.20;97.10
40670;DHT22;26355;45.528;9.234;2023-04-12T15:31:21;18.00;97.30
40670;DHT22;26355;45.528;9.234;2023-04-12T15:33:47;17.90;97.60
40670;DHT22;26355;45.528;9.234;2023-04-12T15:36:15;17.90;98.00
40670;DHT22;26355;45.528;9.234;2023-04-12T15:38:41;17.70;97.90
40670;DHT22;26355;45.528;9.234;2023-04-12T15:41:07;17.90;98.10
40670;DHT22;26355;45.528;9.234;2023-04-12T15:43:33;17.80;98.30
40670;DHT22;26355;45.528;9.234;2023-04-12T15:45:58;17.50;98.60
40670;DHT22;26355;45.528;9.234;2023-04-12T15:48:25;17.50;98.70
40670;DHT22;26355;45.528;9.234;2023-04-12T15:50:52;17.70;98.60
40670;DHT22;26355;45.528;9.234;2023-04-12T15:53:22;17.60;98.70
40670;DHT22;26355;45.528;9.234;2023-04-12T15:55:48;17.60;98.90
40670;DHT22;26355;45.528;9.234;2023-04-12T15:58:18;17.60;99.50
40670;DHT22;26355;45.528;9.234;2023-04-12T16:00:43;17.50;99.30
40670;DHT22;26355;45.528;9.234;2023-04-12T16:03:09;17.30;99.90